This is the latest recevied weather packets stored in our database for station/object AD8AK. If no packets are shown the sender has not sent any weather packets the latest 10 day(s).
| Time | Temp. | Humidity | Pressure | Rain* | Wind** | Luminosity | Snow |
|---|---|---|---|---|---|---|---|
| 1777735990 | 6.67° C | 54% | 1018.5 hPa | 0 mm | - | - | - |
| 1777735688 | 6.67° C | 56% | 1018.5 hPa | 0 mm | - | - | - |
| 1777735385 | 6.67° C | 54% | 1018.6 hPa | 0 mm | - | - | - |
| 1777735082 | 6.67° C | 57% | 1018.5 hPa | 0 mm | - | - | - |
| 1777734779 | 6.67° C | 58% | 1018.3 hPa | 0 mm | - | - | - |
| 1777734477 | 6.67° C | 57% | 1018.3 hPa | 0 mm | - | - | - |
| 1777734173 | 6.11° C | 58% | 1018.5 hPa | 0 mm | - | - | - |
| 1777733869 | 6.67° C | 56% | 1018.3 hPa | 0 mm | - | - | - |
| 1777733566 | 6.67° C | 58% | 1018.4 hPa | 0 mm | - | - | - |
| 1777733262 | 5.56° C | 60% | 1018.3 hPa | 0 mm | - | - | - |
| 1777732959 | 6.11° C | 60% | 1018.2 hPa | 0 mm | - | - | - |
| 1777732655 | 6.67° C | 60% | 1018.3 hPa | 0 mm | - | - | - |
| 1777732353 | 6.11° C | 64% | 1018.3 hPa | 0 mm | - | - | - |
| 1777732051 | 6.67° C | 63% | 1018.2 hPa | 0 mm | - | - | - |
| 1777731747 | 7.22° C | 63% | 1018.2 hPa | 0 mm | - | - | - |
| 1777731444 | 6.67° C | 64% | 1018.2 hPa | 0 mm | - | - | - |
| 1777731143 | 6.67° C | 65% | 1018.2 hPa | 0 mm | - | - | - |
| 1777730840 | 6.11° C | 68% | 1018 hPa | 0 mm | - | - | - |
| 1777730537 | 6.67° C | 66% | 1018.1 hPa | 0 mm | - | - | - |
| 1777730233 | 6.67° C | 70% | 1018.1 hPa | 0 mm | - | - | - |
| 1777729930 | 6.11° C | 70% | 1018.1 hPa | 0 mm | - | - | - |
| 1777729626 | 6.11° C | 71% | 1017.9 hPa | 0 mm | - | - | - |
| 1777729323 | 6.11° C | 70% | 1017.9 hPa | 0 mm | - | - | - |
| 1777729019 | 6.11° C | 72% | 1018 hPa | 0 mm | - | - | - |
| 1777728716 | 5.56° C | 73% | 1017.9 hPa | 0 mm | - | - | - |
* Rain latest hour (hover to see other rain measurements)
** Current wind speed in m/s (hover to see current wind gust speed)